Main page
METAR-TAF:

METAR-TAF

Airports :

Kephalonia International Airport

Kefalonia, Greece

latitude: 38-07N, longitude: 020-30E, elevation: 19 m

Current weather observation

The report was made 3 hours and 34 minutes ago, at 17:50 UTC
Wind 8 kt from the Northwest
Temperature 13°C
Humidity 82%
Pressure 1019 hPa
Visibility 10 km or more
Few clouds at a height of 2000 ft

METAR: LGKF 181750Z 32008KT 9999 FEW020 13/10 Q1019

Time: 23:24 (21:24 UTC)

Forecast

The report was made 1 hour and 24 minutes ago, at 20:00 UTC
Forecast valid from 18 at 21 UTC to 19 at 06 UTC
Wind 10 kt from the Northwest
Visibility 10 km or more
Scattered clouds at a height of 1500 ft
Probability 30%
from 18 at 22 UTC to 19 at 05 UTC
Visibility: 5000 m
Scattered clouds at a height of 800 ft
mist

TAF: LGKF 182000Z 1821/1906 32010KT 9999 SCT015 PROB30 1822/1905 5000 BR SCT008

Weather observations and forecasts of more than 4000 airports (METAR and TAF reports).

The available stations are represented by yellow and red dots on the map.

Hover mouse over dot to see the name of the station.

Then click to see weather observations and forecasts.

To change the map : click on the green buttons with a black cross to zoom in, on the green button with a dash to zoom out, or on the green arrows for adjacent maps.


METAR-TAF: